Time;durP1;ratioP1;P1;durP2;ratioP2;P2;SDS_P1;SDS_P2;PMS_P1;PMS_P2;Temp;Humidity;BMP_temperature;BMP_pressure;BME280_temperature;BME280_humidity;BME280_pressure;Samples;Min_cycle;Max_cycle;Signal;HPM_P1;HPM_P2
2021/01/10 00:00:14;;;;;;;17.07;12.23;;;-1.10;99.90;;;;;;5013128;28;20212;-76
2021/01/10 00:02:44;;;;;;;13.20;11.33;;;-1.10;99.90;;;;;;5014571;28;20191;-76
2021/01/10 00:05:24;;;;;;;16.37;11.37;;;-1.10;99.90;;;;;;5014407;28;20179;-76
2021/01/10 00:07:52;;;;;;;13.63;10.73;;;-1.10;99.90;;;;;;5014502;28;20189;-75
2021/01/10 00:10:19;;;;;;;15.37;11.00;;;-1.10;99.90;;;;;;5012790;28;20221;-75
2021/01/10 00:12:45;;;;;;;15.90;11.97;;;-1.10;99.90;;;;;;5014404;28;20186;-75
2021/01/10 00:15:14;;;;;;;16.60;11.53;;;-1.20;99.90;;;;;;5014426;28;20328;-76
2021/01/10 00:17:41;;;;;;;15.43;11.13;;;-1.20;99.90;;;;;;5014123;28;20179;-75
2021/01/10 00:20:08;;;;;;;13.80;10.03;;;-1.10;99.90;;;;;;5014050;28;20202;-76
2021/01/10 00:22:34;;;;;;;13.13;10.53;;;-1.10;99.90;;;;;;5012924;28;20558;-76
2021/01/10 00:25:00;;;;;;;12.23;10.27;;;-1.10;99.90;;;;;;5012952;28;20183;-76
2021/01/10 00:27:26;;;;;;;12.17;9.97;;;-1.10;99.90;;;;;;5013016;28;20234;-76
2021/01/10 00:29:52;;;;;;;13.27;10.77;;;-1.10;99.90;;;;;;5016312;28;20210;-76
2021/01/10 00:32:19;;;;;;;14.40;11.20;;;-1.10;99.90;;;;;;5014183;28;20175;-76
2021/01/10 00:34:46;;;;;;;12.93;10.47;;;-1.10;99.90;;;;;;5014174;28;20260;-75
2021/01/10 00:37:14;;;;;;;13.33;11.00;;;-1.20;99.90;;;;;;5018762;28;20198;-75
2021/01/10 00:39:39;;;;;;;12.90;11.00;;;-1.20;99.90;;;;;;5021778;28;20206;-76
2021/01/10 00:42:13;;;;;;;13.83;11.50;;;-1.20;99.90;;;;;;5013959;28;20234;-76
2021/01/10 00:44:43;;;;;;;13.33;11.00;;;-1.20;99.90;;;;;;5013747;28;20355;-76
2021/01/10 00:47:09;;;;;;;15.13;12.00;;;-1.10;99.90;;;;;;5013817;28;20177;-76
2021/01/10 00:49:35;;;;;;;14.93;10.47;;;-1.20;99.90;;;;;;5013229;28;20237;-76
2021/01/10 00:52:02;;;;;;;13.60;11.13;;;-1.20;99.90;;;;;;5014187;28;20180;-75
2021/01/10 00:54:28;;;;;;;12.40;10.27;;;-1.20;99.90;;;;;;5013064;28;20222;-76
2021/01/10 00:56:55;;;;;;;13.67;10.53;;;-1.20;99.90;;;;;;5013830;28;20190;-76
2021/01/10 00:59:21;;;;;;;14.97;11.70;;;-1.20;99.90;;;;;;5014053;28;20589;-76
2021/01/10 01:01:47;;;;;;;15.57;11.03;;;-1.20;99.90;;;;;;5013717;28;20242;-76
2021/01/10 01:04:13;;;;;;;14.27;10.97;;;-1.20;99.90;;;;;;5012077;28;20189;-76
2021/01/10 01:06:39;;;;;;;18.60;11.70;;;-1.20;99.90;;;;;;5013655;28;20184;-75
2021/01/10 01:09:06;;;;;;;15.23;11.77;;;-1.30;99.90;;;;;;5012108;28;20217;-76
2021/01/10 01:11:34;;;;;;;16.30;12.33;;;-1.20;99.90;;;;;;5013212;28;20247;-76
2021/01/10 01:13:59;;;;;;;17.23;12.20;;;-1.20;99.90;;;;;;5013302;28;20174;-75
2021/01/10 01:16:25;;;;;;;15.37;11.83;;;-1.20;99.90;;;;;;5013348;28;20209;-76
2021/01/10 01:18:51;;;;;;;16.07;12.40;;;-1.30;99.90;;;;;;5013467;28;20202;-76
2021/01/10 01:21:21;;;;;;;17.30;12.40;;;-1.30;99.90;;;;;;5013315;28;20257;-76
2021/01/10 01:23:48;;;;;;;16.20;12.10;;;-1.20;99.90;;;;;;5013588;28;20165;-75
2021/01/10 01:26:24;;;;;;;15.70;11.73;;;-1.20;99.90;;;;;;5013297;28;20185;-76
2021/01/10 01:28:50;;;;;;;15.63;11.80;;;-1.30;99.90;;;;;;5011891;28;20198;-76
2021/01/10 01:31:17;;;;;;;14.13;11.47;;;-1.30;99.90;;;;;;5013262;28;20192;-76
2021/01/10 01:33:44;;;;;;;15.53;11.93;;;-1.30;99.90;;;;;;5013104;28;20186;-76
2021/01/10 01:36:12;;;;;;;18.87;13.00;;;-1.30;99.90;;;;;;5012579;28;20210;-76
2021/01/10 01:38:41;;;;;;;15.20;12.43;;;-1.30;99.90;;;;;;5012479;28;20740;-76
2021/01/10 01:41:07;;;;;;;16.43;12.50;;;-1.30;99.90;;;;;;5010024;28;20210;-76
2021/01/10 01:43:34;;;;;;;21.03;14.30;;;-1.30;99.90;;;;;;5011002;28;20704;-76
2021/01/10 01:46:02;;;;;;;16.87;12.80;;;-1.30;99.90;;;;;;5012896;28;20189;-76
2021/01/10 01:48:28;;;;;;;15.67;11.63;;;-1.30;99.90;;;;;;5011253;28;20641;-76
2021/01/10 01:50:59;;;;;;;15.07;12.63;;;-1.20;99.90;;;;;;5012407;28;20202;-76
2021/01/10 01:53:26;;;;;;;16.20;12.77;;;-1.20;99.90;;;;;;5011312;28;20173;-76
2021/01/10 01:55:53;;;;;;;17.27;12.60;;;-1.20;99.90;;;;;;5011001;28;20304;-76
2021/01/10 01:58:23;;;;;;;15.20;12.23;;;-1.20;99.90;;;;;;5011151;28;20221;-76
2021/01/10 02:00:54;;;;;;;13.70;11.27;;;-1.20;99.90;;;;;;5014549;28;20554;-76
2021/01/10 02:03:37;;;;;;;16.87;12.00;;;-1.20;99.90;;;;;;5016236;28;20175;-75
2021/01/10 02:06:21;;;;;;;16.00;11.57;;;-1.20;99.90;;;;;;5015914;28;20186;-76
2021/01/10 02:08:51;;;;;;;16.47;12.23;;;-1.30;99.90;;;;;;5016272;28;20232;-76
2021/01/10 02:11:17;;;;;;;16.50;11.07;;;-1.20;99.90;;;;;;5014454;28;20716;-76
2021/01/10 02:13:46;;;;;;;14.33;11.47;;;-1.30;99.90;;;;;;5015884;28;20197;-76
2021/01/10 02:16:12;;;;;;;15.50;11.50;;;-1.20;99.90;;;;;;5014576;28;20184;-76
2021/01/10 02:18:39;;;;;;;14.20;10.90;;;-1.30;99.90;;;;;;5015988;28;20192;-76
2021/01/10 02:21:08;;;;;;;16.70;11.87;;;-1.30;99.90;;;;;;5015928;28;20221;-76
2021/01/10 02:23:34;;;;;;;16.63;11.03;;;-1.30;99.90;;;;;;5018510;28;20173;-76
2021/01/10 02:26:02;;;;;;;13.03;11.13;;;-1.30;99.90;;;;;;5016496;28;20209;-76
2021/01/10 02:28:32;;;;;;;16.33;10.93;;;-1.30;99.90;;;;;;5016313;28;20263;-76
2021/01/10 02:31:00;;;;;;;13.83;11.37;;;-1.30;99.90;;;;;;5016381;28;20230;-76
2021/01/10 02:33:39;;;;;;;14.80;11.03;;;-1.30;99.90;;;;;;5015709;28;20190;-76
2021/01/10 02:36:11;;;;;;;16.00;11.13;;;-1.30;99.90;;;;;;5016411;28;20185;-76
2021/01/10 02:38:42;;;;;;;13.00;9.47;;;-1.30;99.90;;;;;;5017295;28;20184;-76
2021/01/10 02:41:29;;;;;;;11.07;9.53;;;-1.30;99.90;;;;;;5015530;28;20208;-76
2021/01/10 02:44:06;;;;;;;10.17;8.77;;;-1.30;99.90;;;;;;5015835;28;20201;-76
2021/01/10 02:46:34;;;;;;;10.00;8.43;;;-1.30;99.90;;;;;;5016136;28;20185;-76
2021/01/10 02:49:00;;;;;;;13.63;9.57;;;-1.30;99.90;;;;;;5015622;28;20213;-75
2021/01/10 02:51:26;;;;;;;11.97;9.67;;;-1.30;99.90;;;;;;5014529;28;20203;-75
2021/01/10 02:53:51;;;;;;;10.40;8.87;;;-1.30;99.90;;;;;;5015710;28;20180;-75
2021/01/10 02:56:17;;;;;;;10.83;9.60;;;-1.40;99.90;;;;;;5014744;28;20192;-76
2021/01/10 02:58:43;;;;;;;11.50;9.80;;;-1.40;99.90;;;;;;5014780;28;20175;-76
2021/01/10 03:01:11;;;;;;;11.00;9.63;;;-1.40;99.90;;;;;;5015542;28;20683;-76
2021/01/10 03:03:37;;;;;;;12.10;9.83;;;-1.40;99.90;;;;;;5015570;28;20553;-76
2021/01/10 03:06:05;;;;;;;12.77;9.40;;;-1.40;99.90;;;;;;5015394;28;20176;-76
2021/01/10 03:08:31;;;;;;;10.75;9.00;;;-1.40;99.90;;;;;;5015447;28;20262;-75
2021/01/10 03:10:57;;;;;;;11.03;9.33;;;-1.40;99.90;;;;;;5014593;28;20221;-76
2021/01/10 03:13:23;;;;;;;11.37;10.00;;;-1.40;99.90;;;;;;5010074;28;20186;-76
2021/01/10 03:15:50;;;;;;;11.33;9.40;;;-1.30;99.90;;;;;;5002298;28;20209;-75
2021/01/10 03:18:20;;;;;;;10.70;9.60;;;-1.40;99.90;;;;;;5009853;28;20183;-77
2021/01/10 03:20:46;;;;;;;14.40;10.60;;;-1.40;99.90;;;;;;5012104;28;20687;-75
2021/01/10 03:23:13;;;;;;;13.00;10.40;;;-1.40;99.90;;;;;;5015492;28;20267;-75
2021/01/10 03:25:39;;;;;;;11.77;9.50;;;-1.40;99.90;;;;;;5015142;28;20183;-75
2021/01/10 03:28:05;;;;;;;14.33;10.17;;;-1.40;99.90;;;;;;5015031;28;20180;-75
2021/01/10 03:30:31;;;;;;;14.13;10.57;;;-1.40;99.90;;;;;;5012811;28;20295;-76
2021/01/10 03:32:57;;;;;;;12.77;9.73;;;-1.40;99.90;;;;;;5015147;28;20181;-75
2021/01/10 03:35:23;;;;;;;13.30;9.87;;;-1.40;99.90;;;;;;5015174;28;20203;-77
2021/01/10 03:37:49;;;;;;;12.37;10.13;;;-1.40;99.90;;;;;;5015343;28;20203;-78
2021/01/10 03:40:16;;;;;;;12.33;10.17;;;-1.40;99.90;;;;;;5015064;28;20231;-75
2021/01/10 03:42:42;;;;;;;13.20;10.20;;;-1.40;99.90;;;;;;5015327;28;20172;-78
2021/01/10 03:45:10;;;;;;;12.77;10.20;;;-1.30;99.90;;;;;;5014789;28;20217;-77
2021/01/10 03:47:37;;;;;;;12.07;9.80;;;-1.30;99.90;;;;;;5015455;28;20188;-78
2021/01/10 03:50:05;;;;;;;12.30;10.30;;;-1.20;99.90;;;;;;5014986;28;20211;-78
2021/01/10 03:52:30;;;;;;;18.17;10.40;;;-1.20;99.90;;;;;;5014897;28;20593;-77
2021/01/10 03:54:56;;;;;;;11.77;10.10;;;-1.20;99.90;;;;;;5013517;28;20186;-76
2021/01/10 03:57:22;;;;;;;57.13;25.93;;;-1.20;99.90;;;;;;5013228;28;20188;-76
2021/01/10 03:59:47;;;;;;;21.17;13.17;;;-1.20;99.90;;;;;;4996863;28;20212;-75
2021/01/10 04:02:13;;;;;;;67.50;29.03;;;-1.30;99.90;;;;;;5014282;28;20197;-76
2021/01/10 04:04:39;;;;;;;108.53;40.00;;;-1.30;99.90;;;;;;5014611;28;20220;-75
2021/01/10 04:07:07;;;;;;;40.53;21.17;;;-1.30;99.90;;;;;;5014716;28;20271;-76
2021/01/10 04:09:33;;;;;;;34.37;16.77;;;-1.30;99.90;;;;;;5012800;28;20218;-75
2021/01/10 04:11:59;;;;;;;195.67;68.53;;;-1.30;99.90;;;;;;5053780;23;20244;-73
2021/01/10 04:14:25;;;;;;;89.33;39.73;;;-1.30;99.90;;;;;;5034662;28;20176;-74
2021/01/10 04:16:53;;;;;;;38.37;21.10;;;-1.30;99.90;;;;;;5046403;28;20186;-74
2021/01/10 04:19:20;;;;;;;19.73;13.23;;;-1.30;99.90;;;;;;5034249;28;20185;-73
2021/01/10 04:21:46;;;;;;;30.17;18.00;;;-1.30;99.90;;;;;;5019745;28;20229;-73
2021/01/10 04:24:13;;;;;;;14.57;10.97;;;-1.30;99.90;;;;;;5013252;28;20649;-73
2021/01/10 04:26:49;;;;;;;15.50;10.80;;;-1.30;99.90;;;;;;5013951;28;20233;-73
2021/01/10 04:29:19;;;;;;;39.20;21.03;;;-1.30;99.90;;;;;;5012752;28;20690;-73
2021/01/10 04:31:46;;;;;;;48.10;25.00;;;-1.40;99.90;;;;;;5012565;28;20193;-74
2021/01/10 04:34:13;;;;;;;30.73;18.87;;;-1.40;99.90;;;;;;5023595;28;20176;-73
2021/01/10 04:36:39;;;;;;;16.07;11.50;;;-1.40;99.90;;;;;;5014266;28;20260;-73
2021/01/10 04:39:05;;;;;;;58.77;33.00;;;-1.40;99.90;;;;;;5012544;28;20181;-73
2021/01/10 04:41:33;;;;;;;18.43;11.73;;;-1.40;99.90;;;;;;5012481;28;20217;-74
2021/01/10 04:43:59;;;;;;;16.33;11.93;;;-1.40;99.90;;;;;;5014139;28;20185;-74
2021/01/10 04:46:29;;;;;;;14.63;10.83;;;-1.50;99.90;;;;;;5013754;28;20257;-73
2021/01/10 04:48:56;;;;;;;14.80;11.00;;;-1.50;99.90;;;;;;5012548;28;20247;-74
2021/01/10 04:51:26;;;;;;;13.17;10.90;;;-1.50;99.90;;;;;;5013647;28;20200;-73
2021/01/10 04:53:56;;;;;;;13.07;10.90;;;-1.50;99.90;;;;;;5012428;28;20227;-74
2021/01/10 04:56:28;;;;;;;14.90;11.20;;;-1.50;99.90;;;;;;5013662;28;20178;-74
2021/01/10 04:58:56;;;;;;;13.77;10.57;;;-1.50;99.90;;;;;;5012281;28;20181;-73
2021/01/10 05:01:25;;;;;;;14.20;10.40;;;-1.50;99.90;;;;;;5007200;28;20273;-74
2021/01/10 05:03:54;;;;;;;12.70;10.30;;;-1.40;99.90;;;;;;4993508;28;20182;-74
2021/01/10 05:06:20;;;;;;;13.73;10.63;;;-1.50;99.90;;;;;;5001011;28;20177;-73
2021/01/10 05:08:47;;;;;;;14.67;11.23;;;-1.50;99.90;;;;;;5012401;28;20262;-74
2021/01/10 05:11:14;;;;;;;14.10;10.90;;;-1.50;99.90;;;;;;5011760;28;20688;-73
2021/01/10 05:13:40;;;;;;;12.23;10.20;;;-1.50;99.90;;;;;;5012646;28;20294;-73
2021/01/10 05:16:06;;;;;;;14.17;10.57;;;-1.50;99.90;;;;;;5011283;28;20673;-74
2021/01/10 05:18:32;;;;;;;13.43;10.43;;;-1.50;99.90;;;;;;5009920;28;20169;-74
2021/01/10 05:20:58;;;;;;;15.70;11.20;;;-1.50;99.90;;;;;;5011300;28;20201;-74
2021/01/10 05:23:27;;;;;;;13.53;10.87;;;-1.50;99.90;;;;;;5011288;28;20186;-74
2021/01/10 05:26:06;;;;;;;14.53;11.27;;;-1.60;99.90;;;;;;5009940;28;20233;-74
2021/01/10 05:28:34;;;;;;;15.77;11.77;;;-1.60;99.90;;;;;;5011778;28;20209;-73
2021/01/10 05:31:01;;;;;;;14.10;10.57;;;-1.60;99.90;;;;;;5013182;28;20203;-73
2021/01/10 05:33:27;;;;;;;15.30;11.77;;;-1.60;99.90;;;;;;5013119;28;20192;-73
2021/01/10 05:35:55;;;;;;;16.27;12.13;;;-1.60;99.90;;;;;;5017349;28;20261;-74
2021/01/10 05:38:29;;;;;;;13.63;11.37;;;-1.70;99.90;;;;;;5017200;28;20682;-73
2021/01/10 05:41:10;;;;;;;15.37;11.53;;;-1.60;99.90;;;;;;5017287;28;20223;-73
2021/01/10 05:43:36;;;;;;;16.00;11.47;;;-1.70;99.90;;;;;;5016635;28;20227;-74
2021/01/10 05:46:16;;;;;;;14.27;11.03;;;-1.70;99.90;;;;;;5017248;28;20224;-73
2021/01/10 05:48:43;;;;;;;16.70;11.40;;;-1.70;99.90;;;;;;5017124;28;20184;-73
2021/01/10 05:51:11;;;;;;;16.57;11.93;;;-1.70;99.90;;;;;;5017029;28;20696;-73
2021/01/10 05:53:41;;;;;;;18.03;12.37;;;-1.70;99.90;;;;;;5016846;28;20186;-73
2021/01/10 05:56:06;;;;;;;14.97;11.33;;;-1.70;99.90;;;;;;5015589;28;20263;-73
2021/01/10 05:58:33;;;;;;;14.17;11.10;;;-1.80;99.90;;;;;;5015488;28;20255;-73
2021/01/10 06:01:08;;;;;;;15.33;11.83;;;-1.70;99.90;;;;;;5015361;28;20199;-74
2021/01/10 06:03:36;;;;;;;15.47;11.53;;;-1.80;99.90;;;;;;5017162;28;20184;-73
2021/01/10 06:06:04;;;;;;;16.93;12.00;;;-1.80;99.90;;;;;;5015401;28;20235;-73
2021/01/10 06:08:34;;;;;;;14.87;10.83;;;-1.80;99.90;;;;;;5019204;28;20233;-73
2021/01/10 06:11:20;;;;;;;16.97;11.90;;;-1.80;99.90;;;;;;5016493;28;20271;-74
2021/01/10 06:14:03;;;;;;;16.10;11.40;;;-1.80;99.90;;;;;;5004875;28;20176;-72
2021/01/10 06:16:34;;;;;;;15.13;11.00;;;-1.70;99.90;;;;;;5020956;28;20181;-74
2021/01/10 06:19:04;;;;;;;15.17;10.90;;;-1.80;99.90;;;;;;5021723;28;20172;-73
2021/01/10 06:21:32;;;;;;;14.93;11.37;;;-1.70;99.90;;;;;;5021513;28;20306;-74
2021/01/10 06:24:02;;;;;;;17.20;12.47;;;-1.80;99.90;;;;;;5022351;28;20182;-73
2021/01/10 06:26:30;;;;;;;14.93;11.93;;;-1.80;99.90;;;;;;5020417;28;20192;-75
2021/01/10 06:29:07;;;;;;;15.30;11.23;;;-1.80;99.90;;;;;;5017970;28;20274;-73
2021/01/10 06:31:37;;;;;;;17.43;11.63;;;-1.80;99.90;;;;;;5016440;28;20196;-71
2021/01/10 06:34:10;;;;;;;14.17;11.37;;;-1.90;99.90;;;;;;5016346;28;20706;-73
2021/01/10 06:36:43;;;;;;;14.47;11.40;;;-1.90;99.90;;;;;;5016283;28;20180;-72
2021/01/10 06:39:16;;;;;;;18.37;12.60;;;-1.90;99.90;;;;;;5016068;28;20259;-73
2021/01/10 06:41:57;;;;;;;22.90;13.57;;;-1.90;99.90;;;;;;5018661;28;20305;-72
2021/01/10 06:44:23;;;;;;;25.63;14.17;;;-2.00;99.90;;;;;;5003794;28;20652;-72
2021/01/10 06:46:51;;;;;;;18.87;12.70;;;-2.00;99.90;;;;;;5015130;28;20264;-73
2021/01/10 06:49:17;;;;;;;16.23;11.83;;;-2.00;99.90;;;;;;5016101;28;20285;-73
2021/01/10 06:51:47;;;;;;;14.80;11.27;;;-2.10;99.90;;;;;;5015787;28;20720;-69
2021/01/10 06:54:13;;;;;;;15.80;11.77;;;-2.00;99.90;;;;;;5015620;28;20538;-73
2021/01/10 06:56:46;;;;;;;15.40;10.67;;;-2.10;99.90;;;;;;5015908;28;20167;-73
2021/01/10 06:59:25;;;;;;;13.60;10.60;;;-2.10;99.90;;;;;;5015456;28;20214;-73
2021/01/10 07:01:51;;;;;;;14.40;10.87;;;-2.10;99.90;;;;;;5015723;28;20248;-72
2021/01/10 07:04:36;;;;;;;13.50;10.77;;;-2.10;99.90;;;;;;5014283;28;20179;-72
2021/01/10 07:07:03;;;;;;;14.77;10.53;;;-2.10;99.90;;;;;;5015600;28;20180;-72
2021/01/10 07:09:54;;;;;;;17.53;11.07;;;-2.10;99.90;;;;;;5015513;28;20273;-72
2021/01/10 07:12:23;;;;;;;16.30;11.50;;;-2.10;99.90;;;;;;5015310;28;20237;-73
2021/01/10 07:14:49;;;;;;;15.07;10.87;;;-2.10;99.90;;;;;;5015678;28;20181;-73
2021/01/10 07:17:17;;;;;;;14.80;11.40;;;-2.20;99.90;;;;;;5014603;28;20679;-73
2021/01/10 07:19:45;;;;;;;16.63;10.73;;;-2.20;99.90;;;;;;5015194;28;20663;-73
2021/01/10 07:22:26;;;;;;;16.60;11.50;;;-2.20;99.90;;;;;;5015478;28;20200;-72
2021/01/10 07:24:52;;;;;;;15.53;11.73;;;-2.20;99.90;;;;;;5015544;28;20596;-73
2021/01/10 07:27:29;;;;;;;16.13;11.60;;;-2.20;99.90;;;;;;5015521;28;20207;-72
2021/01/10 07:29:55;;;;;;;16.97;11.53;;;-2.20;99.90;;;;;;5014188;28;20216;-73
2021/01/10 07:32:36;;;;;;;16.93;12.20;;;-2.20;99.90;;;;;;5028605;28;20199;-73
2021/01/10 07:35:05;;;;;;;16.30;11.43;;;-2.20;99.90;;;;;;5015349;28;20175;-73
2021/01/10 07:37:33;;;;;;;16.90;11.67;;;-2.30;99.90;;;;;;5015074;28;20175;-73
2021/01/10 07:40:07;;;;;;;16.70;11.57;;;-2.30;99.90;;;;;;5015091;28;20175;-72
2021/01/10 07:42:35;;;;;;;16.83;11.50;;;-2.30;99.90;;;;;;5015214;28;20171;-73
2021/01/10 07:45:04;;;;;;;15.30;10.97;;;-2.30;99.90;;;;;;5014706;28;20196;-73
2021/01/10 07:47:29;;;;;;;17.30;12.17;;;-2.30;99.90;;;;;;5013132;28;20180;-73
2021/01/10 07:49:56;;;;;;;16.27;11.40;;;-2.20;99.90;;;;;;4997976;28;20266;-73
2021/01/10 07:52:49;;;;;;;21.10;12.37;;;-2.20;99.90;;;;;;4996384;28;20192;-73
2021/01/10 07:55:20;;;;;;;13.50;11.30;;;-2.20;99.90;;;;;;4996506;28;20176;-73
2021/01/10 07:58:00;;;;;;;17.27;12.10;;;-2.20;99.90;;;;;;4998641;28;20239;-73
2021/01/10 08:00:34;;;;;;;15.67;11.03;;;-2.20;99.90;;;;;;5013956;28;20731;-73
2021/01/10 08:03:03;;;;;;;16.17;11.50;;;-2.10;99.90;;;;;;5013234;28;20191;-74
2021/01/10 08:05:35;;;;;;;15.37;11.80;;;-2.10;99.90;;;;;;5012682;28;20274;-73
2021/01/10 08:08:13;;;;;;;15.23;11.47;;;-2.10;99.90;;;;;;4996589;28;20551;-72
2021/01/10 08:10:48;;;;;;;15.10;11.70;;;-2.10;99.90;;;;;;5014279;28;20242;-72
2021/01/10 08:13:26;;;;;;;15.53;11.80;;;-2.10;99.90;;;;;;5014370;28;20595;-72
2021/01/10 08:15:56;;;;;;;15.43;11.43;;;-2.10;99.90;;;;;;5015892;28;20661;-73
2021/01/10 08:18:24;;;;;;;14.87;11.43;;;-2.10;99.90;;;;;;5015074;28;20171;-72
2021/01/10 08:20:56;;;;;;;17.27;11.80;;;-2.00;99.90;;;;;;5014462;28;20530;-72
2021/01/10 08:23:23;;;;;;;15.73;11.80;;;-1.90;99.90;;;;;;5012848;28;20212;-72
2021/01/10 08:25:51;;;;;;;17.43;12.37;;;-1.90;99.90;;;;;;5014296;28;20660;-72
2021/01/10 08:28:17;;;;;;;17.67;11.87;;;-1.90;99.90;;;;;;5014112;28;20548;-72
2021/01/10 08:30:45;;;;;;;15.67;12.17;;;-1.90;99.90;;;;;;5013859;28;20680;-73
2021/01/10 08:33:21;;;;;;;15.40;11.67;;;-1.90;99.90;;;;;;5014251;28;20187;-72
2021/01/10 08:35:47;;;;;;;14.60;11.70;;;-1.80;99.90;;;;;;5014280;28;20168;-72
2021/01/10 08:38:14;;;;;;;14.77;11.07;;;-1.80;99.90;;;;;;5012636;28;20181;-72
2021/01/10 08:40:40;;;;;;;17.37;11.73;;;-1.70;99.90;;;;;;5014120;28;20203;-73
2021/01/10 08:43:06;;;;;;;17.77;12.40;;;-1.70;99.90;;;;;;5016465;28;20692;-72
2021/01/10 08:45:33;;;;;;;13.30;11.17;;;-1.70;99.90;;;;;;5013980;28;20593;-72
2021/01/10 08:48:04;;;;;;;14.83;11.53;;;-1.70;99.90;;;;;;5014077;28;20179;-72
2021/01/10 08:50:39;;;;;;;13.40;11.40;;;-1.70;99.90;;;;;;5012347;28;20233;-72
2021/01/10 08:53:06;;;;;;;18.13;13.27;;;-1.60;99.90;;;;;;5013750;28;20258;-72
2021/01/10 08:55:42;;;;;;;17.80;13.97;;;-1.60;99.90;;;;;;5013947;28;20214;-73
2021/01/10 08:58:11;;;;;;;17.50;13.17;;;-1.50;99.90;;;;;;5013853;28;20200;-72
2021/01/10 09:00:41;;;;;;;19.57;12.93;;;-1.50;99.90;;;;;;5013463;28;20668;-72
2021/01/10 09:03:18;;;;;;;18.87;12.07;;;-1.50;99.90;;;;;;5012275;28;20176;-72
2021/01/10 09:05:47;;;;;;;18.93;13.17;;;-1.50;99.90;;;;;;5013417;28;20592;-72
2021/01/10 09:08:39;;;;;;;19.27;12.93;;;-1.50;99.90;;;;;;5013612;28;20188;-72
2021/01/10 09:11:12;;;;;;;17.47;12.63;;;-1.50;99.90;;;;;;5011955;28;20212;-72
2021/01/10 09:13:42;;;;;;;16.73;11.77;;;-1.50;99.90;;;;;;5013764;28;20187;-72
2021/01/10 09:16:11;;;;;;;19.63;12.57;;;-1.40;99.90;;;;;;5013409;28;20650;-73
2021/01/10 09:18:40;;;;;;;19.07;12.50;;;-1.40;99.90;;;;;;5013333;28;20198;-72
2021/01/10 09:21:13;;;;;;;19.17;12.20;;;-1.40;99.90;;;;;;5012071;28;20204;-71
2021/01/10 09:23:46;;;;;;;19.90;14.90;;;-1.40;99.90;;;;;;5013821;28;20575;-72
2021/01/10 09:26:30;;;;;;;17.73;12.87;;;-1.40;99.90;;;;;;5013368;28;20270;-72
2021/01/10 09:28:57;;;;;;;38.40;21.37;;;-1.40;99.90;;;;;;5012336;28;20179;-73
2021/01/10 09:31:42;;;;;;;25.30;15.90;;;-1.40;99.90;;;;;;5013188;28;20202;-71
2021/01/10 09:34:09;;;;;;;26.77;17.40;;;-1.40;99.90;;;;;;5020388;28;20192;-71
2021/01/10 09:36:36;;;;;;;25.47;15.70;;;-1.40;99.90;;;;;;5020361;28;20186;-72
2021/01/10 09:39:04;;;;;;;39.30;22.03;;;-1.30;99.90;;;;;;5012270;28;20672;-72
2021/01/10 09:41:30;;;;;;;16.87;12.93;;;-1.30;99.90;;;;;;5013536;28;20295;-72
2021/01/10 09:43:58;;;;;;;18.60;13.50;;;-1.30;99.90;;;;;;5011947;28;20275;-72
2021/01/10 09:46:35;;;;;;;35.47;18.13;;;-1.30;99.90;;;;;;5013174;28;20184;-72
2021/01/10 09:49:03;;;;;;;23.57;14.93;;;-1.30;99.90;;;;;;5013212;28;20177;-72
2021/01/10 09:51:42;;;;;;;55.80;28.40;;;-1.30;99.90;;;;;;5012998;28;20205;-72
2021/01/10 09:54:16;;;;;;;39.50;20.47;;;-1.20;99.90;;;;;;5013259;28;20204;-72
2021/01/10 09:56:43;;;;;;;17.57;12.40;;;-1.20;99.90;;;;;;5013547;28;20207;-72
2021/01/10 09:59:30;;;;;;;40.63;21.27;;;-1.20;99.90;;;;;;5013129;28;20304;-72
2021/01/10 10:01:58;;;;;;;21.80;14.57;;;-1.10;99.90;;;;;;5011712;28;20204;-72
2021/01/10 10:04:27;;;;;;;18.50;12.40;;;-1.00;99.90;;;;;;5013254;28;20596;-72
2021/01/10 10:06:53;;;;;;;21.73;13.17;;;-1.00;99.90;;;;;;5013061;28;20248;-72
2021/01/10 10:09:19;;;;;;;15.27;11.50;;;-0.90;99.90;;;;;;5012775;28;20702;-72
2021/01/10 10:11:44;;;;;;;19.70;12.03;;;-0.90;99.90;;;;;;5042989;22;20232;-78
2021/01/10 10:14:11;;;;;;;16.90;11.63;;;-0.90;99.90;;;;;;5032860;28;20174;-75
2021/01/10 10:16:37;;;;;;;15.50;11.27;;;-0.90;99.90;;;;;;5032652;28;20261;-78
2021/01/10 10:19:03;;;;;;;17.30;12.97;;;-0.90;99.90;;;;;;5033335;28;20202;-75
2021/01/10 10:21:28;;;;;;;19.37;13.27;;;-0.80;99.90;;;;;;5030299;28;20542;-76
2021/01/10 10:23:54;;;;;;;16.87;12.40;;;-0.80;99.90;;;;;;5024951;28;20187;-76
2021/01/10 10:26:20;;;;;;;21.93;12.43;;;-0.80;99.90;;;;;;5022081;28;20179;-76
2021/01/10 10:28:45;;;;;;;17.90;12.47;;;-0.80;99.90;;;;;;5016189;28;20248;-76
2021/01/10 10:31:11;;;;;;;22.63;13.43;;;-0.70;99.90;;;;;;5016357;28;20539;-76
2021/01/10 10:33:38;;;;;;;17.50;13.27;;;-0.70;99.90;;;;;;5016070;28;20254;-76
2021/01/10 10:36:04;;;;;;;19.57;12.80;;;-0.60;99.90;;;;;;5016351;28;20269;-76
2021/01/10 10:38:34;;;;;;;19.23;12.60;;;-0.60;99.90;;;;;;5016087;28;20680;-77
2021/01/10 10:41:00;;;;;;;16.27;11.80;;;-0.50;99.90;;;;;;5014992;28;20269;-76
2021/01/10 10:43:26;;;;;;;18.53;13.00;;;-0.50;99.90;;;;;;5016021;28;20201;-76
2021/01/10 10:45:52;;;;;;;18.97;13.30;;;-0.40;99.90;;;;;;5015030;28;20177;-77
2021/01/10 10:48:18;;;;;;;17.97;12.17;;;-0.30;99.90;;;;;;5016066;28;20649;-78
2021/01/10 10:50:44;;;;;;;19.13;12.70;;;-0.20;99.90;;;;;;5015759;28;20498;-77
2021/01/10 10:53:10;;;;;;;19.80;12.33;;;-0.20;99.90;;;;;;5021863;28;20213;-77
2021/01/10 10:55:36;;;;;;;18.27;12.80;;;-0.20;99.90;;;;;;5018236;28;20181;-77
2021/01/10 10:58:02;;;;;;;15.83;11.30;;;-0.10;99.90;;;;;;5015053;28;20182;-76
2021/01/10 11:00:28;;;;;;;21.77;12.80;;;-0.10;99.90;;;;;;5015969;28;20179;-77
2021/01/10 11:02:54;;;;;;;17.63;12.00;;;0.00;99.90;;;;;;5015655;28;20374;-77
2021/01/10 11:05:22;;;;;;;15.70;12.00;;;0.00;99.90;;;;;;5014728;28;20209;-78
2021/01/10 11:07:48;;;;;;;20.20;13.10;;;0.00;99.90;;;;;;5014742;28;20182;-78
2021/01/10 11:10:14;;;;;;;18.20;11.77;;;0.10;99.90;;;;;;5027267;28;20284;-78
2021/01/10 11:12:40;;;;;;;17.40;12.83;;;0.10;99.90;;;;;;5019654;28;20218;-78
2021/01/10 11:15:07;;;;;;;16.27;12.43;;;0.20;99.90;;;;;;5020426;28;20193;-78
2021/01/10 11:17:33;;;;;;;18.13;12.47;;;0.20;99.90;;;;;;5024681;28;20175;-78
2021/01/10 11:20:01;;;;;;;18.13;11.97;;;0.20;99.90;;;;;;5017184;28;20265;-78
2021/01/10 11:22:29;;;;;;;15.30;11.37;;;0.30;99.90;;;;;;5017389;28;20191;-79
2021/01/10 11:24:55;;;;;;;16.77;11.50;;;0.20;99.90;;;;;;5017123;28;20191;-78
2021/01/10 11:27:21;;;;;;;18.00;12.80;;;0.10;99.90;;;;;;5016432;28;20313;-78
2021/01/10 11:29:47;;;;;;;16.70;12.53;;;0.10;99.90;;;;;;5017807;28;20209;-78
2021/01/10 11:32:13;;;;;;;16.67;11.67;;;0.20;99.90;;;;;;5019102;28;20203;-78
2021/01/10 11:34:39;;;;;;;16.30;11.07;;;0.20;99.90;;;;;;5018488;28;20196;-81
2021/01/10 11:37:05;;;;;;;16.67;12.07;;;0.20;99.90;;;;;;5017857;28;20353;-79
2021/01/10 11:39:31;;;;;;;17.53;11.30;;;0.30;99.90;;;;;;5019026;28;20189;-78
2021/01/10 11:41:57;;;;;;;15.00;10.47;;;0.30;99.90;;;;;;5017775;28;20212;-79
2021/01/10 11:44:25;;;;;;;13.27;10.63;;;0.30;99.90;;;;;;5017382;28;20188;-78
2021/01/10 11:46:53;;;;;;;15.77;11.07;;;0.30;99.90;;;;;;5016131;28;20548;-78
2021/01/10 11:49:20;;;;;;;15.97;11.23;;;0.30;99.90;;;;;;5016270;28;20202;-78
2021/01/10 11:51:47;;;;;;;15.70;10.93;;;0.30;99.90;;;;;;5015917;28;20206;-78
2021/01/10 11:54:13;;;;;;;13.90;10.70;;;0.30;99.90;;;;;;5011861;28;20665;-77
2021/01/10 11:56:40;;;;;;;14.80;11.27;;;0.40;99.90;;;;;;5014440;28;20171;-78
2021/01/10 11:59:06;;;;;;;16.70;11.43;;;0.50;99.90;;;;;;5014232;28;20183;-78
2021/01/10 12:01:37;;;;;;;14.20;11.00;;;0.60;99.90;;;;;;5011772;28;20565;-78
2021/01/10 12:04:04;;;;;;;14.17;10.30;;;0.60;99.90;;;;;;5015740;28;20175;-78
2021/01/10 12:06:31;;;;;;;17.43;10.37;;;0.60;99.90;;;;;;5015280;28;20547;-79
2021/01/10 12:08:57;;;;;;;16.23;10.50;;;0.70;99.90;;;;;;5015065;28;20175;-78
2021/01/10 12:11:23;;;;;;;14.10;10.70;;;0.70;99.90;;;;;;5014914;28;20261;-78
2021/01/10 12:13:49;;;;;;;13.17;10.23;;;0.60;99.90;;;;;;5015260;28;20245;-78
2021/01/10 12:16:17;;;;;;;12.33;10.47;;;0.60;99.90;;;;;;5015109;28;20185;-78
2021/01/10 12:18:43;;;;;;;14.63;11.40;;;0.60;99.90;;;;;;5013113;28;20170;-78
2021/01/10 12:21:10;;;;;;;17.93;11.50;;;0.50;99.90;;;;;;5013458;28;20676;-77
2021/01/10 12:23:36;;;;;;;15.30;10.90;;;0.60;99.90;;;;;;5015591;28;20261;-77
2021/01/10 12:26:10;;;;;;;13.80;10.63;;;0.60;99.90;;;;;;5011239;28;20179;-78
2021/01/10 12:28:39;;;;;;;17.70;11.73;;;0.70;99.90;;;;;;5013685;28;20167;-77
2021/01/10 12:31:05;;;;;;;13.97;10.47;;;0.70;99.90;;;;;;5002834;28;20199;-77
2021/01/10 12:33:35;;;;;;;12.97;10.53;;;0.70;99.90;;;;;;5009773;28;20277;-77
2021/01/10 12:36:02;;;;;;;25.33;15.53;;;0.80;99.90;;;;;;5011092;28;20210;-77